Time;durP1;ratioP1;P1;durP2;ratioP2;P2;SDS_P1;SDS_P2;PMS_P1;PMS_P2;Temp;Humidity;BMP_temperature;BMP_pressure;BME280_temperature;BME280_humidity;BME280_pressure;Samples;Min_cycle;Max_cycle;Signal;HPM_P1;HPM_P2
2024/04/11 00:01:39;;;;;;;8.10;7.27;;;11.50;99.90;;;;;;5420147;26;20223;-64
2024/04/11 00:04:05;;;;;;;7.07;6.40;;;11.50;99.90;;;;;;5446400;26;20786;-63
2024/04/11 00:06:31;;;;;;;7.60;6.80;;;11.50;99.90;;;;;;5448583;26;20441;-63
2024/04/11 00:08:57;;;;;;;7.93;7.00;;;11.50;99.90;;;;;;5447879;26;20668;-63
2024/04/11 00:11:23;;;;;;;8.97;7.47;;;11.50;99.90;;;;;;5451561;26;20232;-63
2024/04/11 00:13:48;;;;;;;9.60;8.57;;;11.50;99.90;;;;;;5416724;26;20242;-63
2024/04/11 00:16:14;;;;;;;13.80;9.27;;;11.50;99.90;;;;;;5440357;26;20565;-63
2024/04/11 00:18:40;;;;;;;8.90;8.00;;;11.50;99.90;;;;;;5428662;26;20240;-63
2024/04/11 00:21:06;;;;;;;8.47;7.30;;;11.60;99.90;;;;;;5417750;26;20626;-63
2024/04/11 00:23:32;;;;;;;7.93;7.13;;;11.50;99.90;;;;;;5452850;26;20771;-63
2024/04/11 00:25:59;;;;;;;7.97;5.27;;;11.50;99.90;;;;;;5452521;26;20695;-63
2024/04/11 00:28:26;;;;;;;5.73;4.70;;;11.50;99.90;;;;;;5455318;26;20266;-63
2024/04/11 00:30:52;;;;;;;5.13;4.63;;;11.50;99.90;;;;;;5452747;26;20457;-63
2024/04/11 00:33:18;;;;;;;5.17;4.77;;;11.50;99.90;;;;;;5453406;26;20446;-63
2024/04/11 00:35:49;;;;;;;4.57;4.10;;;11.50;99.90;;;;;;5422154;26;20916;-63
2024/04/11 00:38:20;;;;;;;4.40;4.00;;;11.50;99.90;;;;;;5423353;26;20312;-63
2024/04/11 00:40:56;;;;;;;7.23;4.47;;;11.50;99.90;;;;;;5452161;26;20455;-63
2024/04/11 00:43:26;;;;;;;6.17;4.80;;;11.50;99.90;;;;;;5452995;26;20505;-63
2024/04/11 00:45:56;;;;;;;3.90;3.50;;;11.60;99.90;;;;;;5454052;26;20492;-63
2024/04/11 00:48:22;;;;;;;3.30;2.90;;;11.50;99.90;;;;;;5454453;26;20785;-63
2024/04/11 00:50:50;;;;;;;4.93;4.10;;;11.60;99.90;;;;;;5453849;26;20440;-63
2024/04/11 00:53:18;;;;;;;3.83;3.53;;;11.60;99.90;;;;;;5450772;26;20237;-63
2024/04/11 00:55:44;;;;;;;4.60;3.90;;;11.70;99.90;;;;;;5453686;26;21097;-63
2024/04/11 00:58:12;;;;;;;5.63;4.20;;;11.80;99.90;;;;;;5454192;26;20459;-63
2024/04/11 01:00:41;;;;;;;4.20;3.80;;;11.80;99.90;;;;;;5454409;26;20270;-63
2024/04/11 01:03:07;;;;;;;5.00;4.17;;;11.80;99.90;;;;;;5453389;26;20520;-63
2024/04/11 01:05:34;;;;;;;6.40;4.90;;;11.80;99.90;;;;;;5454228;26;20458;-63
2024/04/11 01:08:07;;;;;;;5.67;4.37;;;11.80;99.90;;;;;;5451915;26;20574;-63
2024/04/11 01:10:33;;;;;;;5.07;4.57;;;11.70;99.90;;;;;;5454631;26;20433;-63
2024/04/11 01:12:59;;;;;;;4.43;4.10;;;11.70;99.90;;;;;;5453561;26;20451;-63
2024/04/11 01:15:25;;;;;;;5.53;4.80;;;11.70;99.90;;;;;;5454112;26;20784;-63
2024/04/11 01:17:51;;;;;;;5.20;4.40;;;11.70;99.90;;;;;;5421465;26;20549;-63
2024/04/11 01:20:17;;;;;;;6.40;4.20;;;11.60;99.90;;;;;;5454350;26;20467;-63
2024/04/11 01:22:42;;;;;;;6.20;5.60;;;11.60;99.90;;;;;;5454214;26;20240;-64
2024/04/11 01:25:08;;;;;;;5.07;4.67;;;11.60;99.90;;;;;;5453429;26;20223;-63
2024/04/11 01:27:35;;;;;;;4.73;4.33;;;11.50;99.90;;;;;;5454272;26;20282;-64
2024/04/11 01:30:04;;;;;;;6.40;4.97;;;11.50;99.90;;;;;;5451526;26;20447;-63
2024/04/11 01:32:30;;;;;;;7.07;4.57;;;11.40;99.90;;;;;;5453511;26;20498;-63
2024/04/11 01:34:56;;;;;;;6.20;5.10;;;11.40;99.90;;;;;;5421703;26;20453;-63
2024/04/11 01:37:23;;;;;;;6.07;5.10;;;11.40;99.90;;;;;;5450439;26;20835;-63
2024/04/11 01:39:49;;;;;;;5.67;5.27;;;11.40;99.90;;;;;;5453223;26;20834;-62
2024/04/11 01:42:18;;;;;;;4.70;3.80;;;11.40;99.90;;;;;;5453737;26;20504;-63
2024/04/11 01:44:44;;;;;;;5.43;4.00;;;11.40;99.90;;;;;;5453635;26;20791;-63
2024/04/11 01:47:14;;;;;;;3.93;3.30;;;11.50;99.90;;;;;;5452888;26;20452;-62
2024/04/11 01:49:41;;;;;;;3.80;3.50;;;11.50;99.90;;;;;;5454033;26;20458;-62
2024/04/11 01:52:09;;;;;;;3.73;3.43;;;11.50;99.90;;;;;;5452853;26;20571;-63
2024/04/11 01:54:39;;;;;;;3.70;3.40;;;11.60;99.90;;;;;;5451975;26;20983;-63
2024/04/11 01:57:06;;;;;;;3.60;3.40;;;11.50;99.90;;;;;;5438588;26;20833;-62
2024/04/11 01:59:33;;;;;;;2.43;2.13;;;11.60;99.90;;;;;;5453253;26;20448;-62
2024/04/11 02:01:59;;;;;;;3.13;2.93;;;11.70;99.90;;;;;;5453565;26;20432;-63
2024/04/11 02:04:30;;;;;;;3.47;3.17;;;11.70;98.60;;;;;;5439524;26;20446;-62
2024/04/11 02:06:57;;;;;;;3.37;3.07;;;11.70;98.70;;;;;;5452640;26;20527;-62
2024/04/11 02:09:23;;;;;;;2.87;2.63;;;11.80;99.10;;;;;;5453492;26;20556;-62
2024/04/11 02:11:53;;;;;;;3.33;2.97;;;11.80;99.40;;;;;;5452685;26;20966;-62
2024/04/11 02:14:22;;;;;;;3.97;2.60;;;11.90;98.90;;;;;;5453399;26;20287;-62
2024/04/11 02:16:50;;;;;;;3.20;3.00;;;11.90;99.50;;;;;;5452565;26;20447;-62
2024/04/11 02:19:16;;;;;;;4.13;3.60;;;11.90;99.90;;;;;;5421343;26;20519;-62
2024/04/11 02:21:43;;;;;;;6.10;4.20;;;12.00;99.90;;;;;;5453253;26;20444;-62
2024/04/11 02:24:22;;;;;;;2.80;2.60;;;11.90;99.90;;;;;;5450828;26;20526;-62
2024/04/11 02:26:48;;;;;;;2.90;2.63;;;11.90;99.90;;;;;;5417493;26;20439;-63
2024/04/11 02:29:19;;;;;;;3.73;3.47;;;11.90;99.90;;;;;;5446296;26;20978;-63
2024/04/11 02:31:47;;;;;;;3.77;3.33;;;11.90;99.90;;;;;;5452940;26;20507;-63
2024/04/11 02:34:13;;;;;;;3.60;3.30;;;11.80;99.90;;;;;;5452286;26;20453;-62
2024/04/11 02:36:39;;;;;;;3.43;3.13;;;11.80;99.90;;;;;;5453322;26;20442;-63
2024/04/11 02:39:07;;;;;;;2.80;2.70;;;11.80;99.90;;;;;;5451934;26;20734;-62
2024/04/11 02:41:37;;;;;;;3.33;2.97;;;11.80;99.90;;;;;;5453091;26;20430;-63
2024/04/11 02:44:04;;;;;;;3.30;3.00;;;11.80;99.90;;;;;;5451741;26;20437;-63
2024/04/11 02:46:34;;;;;;;3.23;3.03;;;11.70;99.90;;;;;;5452421;26;20484;-62
2024/04/11 02:49:05;;;;;;;3.30;3.10;;;11.70;99.90;;;;;;5452407;26;20449;-62
2024/04/11 02:51:31;;;;;;;3.33;3.03;;;11.70;99.70;;;;;;5452707;26;20441;-63
2024/04/11 02:53:57;;;;;;;4.37;2.90;;;11.70;99.90;;;;;;5450398;26;20431;-63
2024/04/11 02:56:26;;;;;;;3.73;3.53;;;11.70;99.90;;;;;;5452610;26;20555;-63
2024/04/11 02:58:55;;;;;;;3.27;3.07;;;11.70;99.90;;;;;;5452129;26;20488;-62
2024/04/11 03:01:22;;;;;;;2.97;2.80;;;11.70;99.90;;;;;;5452630;26;20440;-62
2024/04/11 03:03:47;;;;;;;3.90;2.73;;;11.70;99.20;;;;;;5419585;26;20496;-63
2024/04/11 03:06:18;;;;;;;5.30;3.13;;;11.70;99.30;;;;;;5451671;26;20427;-62
2024/04/11 03:08:46;;;;;;;3.73;3.10;;;11.80;98.70;;;;;;5452735;26;20794;-62
2024/04/11 03:11:12;;;;;;;4.37;3.10;;;11.80;99.20;;;;;;5451959;26;21030;-62
2024/04/11 03:13:39;;;;;;;3.23;2.93;;;11.90;99.90;;;;;;5452500;26;20432;-62
2024/04/11 03:16:06;;;;;;;2.93;2.70;;;11.90;99.90;;;;;;5451574;26;20348;-62
2024/04/11 03:18:34;;;;;;;3.20;2.90;;;11.90;99.90;;;;;;5451897;26;20469;-62
2024/04/11 03:21:00;;;;;;;3.00;2.80;;;11.90;99.90;;;;;;5451534;26;20434;-62
2024/04/11 03:23:27;;;;;;;3.37;2.87;;;11.90;99.40;;;;;;5420849;26;20441;-62
2024/04/11 03:25:53;;;;;;;2.83;2.63;;;11.90;99.20;;;;;;5449695;26;20457;-62
2024/04/11 03:28:21;;;;;;;3.33;3.03;;;11.90;98.30;;;;;;5451902;26;20992;-62
2024/04/11 03:31:18;;;;;;;4.00;3.77;;;11.90;97.50;;;;;;5452321;26;20505;-63
2024/04/11 03:33:47;;;;;;;3.57;2.80;;;12.00;97.20;;;;;;5418287;26;20553;-63
2024/04/11 03:36:13;;;;;;;4.20;3.90;;;12.10;97.50;;;;;;5419953;26;20517;-63
2024/04/11 03:38:40;;;;;;;5.37;3.80;;;12.10;97.60;;;;;;5452217;26;20925;-63
2024/04/11 03:41:10;;;;;;;4.50;3.80;;;12.20;98.10;;;;;;5419697;26;20279;-62
2024/04/11 03:43:37;;;;;;;4.33;2.60;;;12.20;98.10;;;;;;5452134;26;20429;-63
2024/04/11 03:46:08;;;;;;;4.70;3.07;;;12.20;97.80;;;;;;5450997;26;20449;-62
2024/04/11 03:48:35;;;;;;;5.10;3.30;;;12.20;97.50;;;;;;5451949;26;20825;-63
2024/04/11 03:51:15;;;;;;;2.70;2.50;;;12.20;97.60;;;;;;5451125;26;20459;-62
2024/04/11 03:53:42;;;;;;;3.10;2.40;;;12.20;96.80;;;;;;5420550;26;20482;-63
2024/04/11 03:56:08;;;;;;;3.33;3.03;;;12.20;96.40;;;;;;5450433;26;20869;-62
2024/04/11 03:58:37;;;;;;;4.70;3.13;;;12.20;96.90;;;;;;5455404;26;20458;-64
2024/04/11 04:01:12;;;;;;;2.83;2.63;;;12.30;95.10;;;;;;5454333;26;20783;-62
2024/04/11 04:03:42;;;;;;;4.00;3.60;;;12.20;93.70;;;;;;5455187;26;20435;-65
2024/04/11 04:06:12;;;;;;;5.53;3.53;;;12.20;93.30;;;;;;5451785;26;20521;-64
2024/04/11 04:08:40;;;;;;;5.10;4.53;;;12.30;92.80;;;;;;5454677;26;20444;-64
2024/04/11 04:11:07;;;;;;;2.67;2.47;;;12.30;92.40;;;;;;5453950;26;21040;-65
2024/04/11 04:13:33;;;;;;;6.57;2.30;;;12.30;91.90;;;;;;5454579;26;20499;-65
2024/04/11 04:16:00;;;;;;;3.20;2.93;;;12.30;92.00;;;;;;5454112;26;20847;-65
2024/04/11 04:18:26;;;;;;;5.80;2.47;;;12.30;91.70;;;;;;5445396;26;20481;-66
2024/04/11 04:20:59;;;;;;;2.90;2.30;;;12.30;91.90;;;;;;5419176;26;20496;-65
2024/04/11 04:23:25;;;;;;;5.60;5.10;;;12.40;91.90;;;;;;5419443;26;20215;-65
2024/04/11 04:25:59;;;;;;;6.17;3.80;;;12.40;91.60;;;;;;5419133;26;20821;-65
2024/04/11 04:28:35;;;;;;;6.17;5.00;;;12.50;91.30;;;;;;5419153;26;20222;-65
2024/04/11 04:31:20;;;;;;;2.93;2.70;;;12.50;91.20;;;;;;5418450;26;20424;-64
2024/04/11 04:33:57;;;;;;;5.23;4.70;;;12.60;91.60;;;;;;5387900;26;20425;-65
2024/04/11 04:36:26;;;;;;;3.77;3.40;;;12.70;91.80;;;;;;5417952;26;20452;-65
2024/04/11 04:38:57;;;;;;;6.70;6.20;;;12.70;93.00;;;;;;5387342;26;20899;-65
2024/04/11 04:41:29;;;;;;;4.37;3.97;;;12.80;92.60;;;;;;5387120;26;20456;-65
2024/04/11 04:43:56;;;;;;;6.73;3.97;;;12.80;92.30;;;;;;5418791;26;20429;-66
2024/04/11 04:46:28;;;;;;;3.57;3.27;;;12.80;92.80;;;;;;5418511;26;20827;-65
2024/04/11 04:48:55;;;;;;;3.67;3.20;;;12.80;91.90;;;;;;5418719;26;20452;-66
2024/04/11 04:51:24;;;;;;;4.30;3.40;;;12.90;91.50;;;;;;5357434;26;20444;-65
2024/04/11 04:53:50;;;;;;;4.97;4.57;;;12.90;91.40;;;;;;5418855;26;20523;-65
2024/04/11 04:56:17;;;;;;;3.83;3.53;;;13.00;91.30;;;;;;5418080;26;20434;-65
2024/04/11 04:58:44;;;;;;;3.40;3.10;;;13.00;90.70;;;;;;5415560;26;20524;-65
2024/04/11 05:01:10;;;;;;;3.27;2.93;;;13.10;92.00;;;;;;5417752;26;20441;-65
2024/04/11 05:03:39;;;;;;;4.30;3.50;;;13.10;91.90;;;;;;5418215;26;20570;-65
2024/04/11 05:06:07;;;;;;;3.53;3.33;;;13.10;91.70;;;;;;5386442;26;20836;-65
2024/04/11 05:08:34;;;;;;;5.50;3.40;;;13.20;92.40;;;;;;5417749;26;20440;-65
2024/04/11 05:11:10;;;;;;;3.83;3.60;;;13.20;92.10;;;;;;5418023;26;20439;-64
2024/04/11 05:13:37;;;;;;;3.30;3.10;;;13.20;92.10;;;;;;5387381;26;20437;-65
2024/04/11 05:16:06;;;;;;;5.97;4.37;;;13.30;92.60;;;;;;5386182;26;20495;-65
2024/04/11 05:18:39;;;;;;;4.17;3.87;;;13.30;92.10;;;;;;5428675;26;20486;-65
2024/04/11 05:21:09;;;;;;;4.17;3.00;;;13.30;92.10;;;;;;5453351;26;20444;-65
2024/04/11 05:23:38;;;;;;;3.03;2.70;;;13.40;91.00;;;;;;5422730;26;20444;-65
2024/04/11 05:26:08;;;;;;;3.17;2.87;;;13.40;90.90;;;;;;5453358;26;20783;-65
2024/04/11 05:28:35;;;;;;;4.20;3.00;;;13.50;90.50;;;;;;5452240;26;20504;-65
2024/04/11 05:31:04;;;;;;;5.77;3.57;;;13.30;90.10;;;;;;5451812;26;20534;-65
2024/04/11 05:33:37;;;;;;;4.43;3.80;;;13.30;90.10;;;;;;5422172;26;20492;-65
2024/04/11 05:36:06;;;;;;;5.97;4.40;;;13.30;90.40;;;;;;5421432;26;20822;-65
2024/04/11 05:38:37;;;;;;;5.20;2.60;;;13.30;90.50;;;;;;5454106;26;20483;-66
2024/04/11 05:41:09;;;;;;;3.80;3.50;;;13.30;89.80;;;;;;5449579;26;20538;-62
2024/04/11 05:43:35;;;;;;;2.93;2.73;;;13.40;90.30;;;;;;5453353;26;20424;-65
2024/04/11 05:46:02;;;;;;;3.00;2.80;;;13.50;90.40;;;;;;5452163;26;20486;-65
2024/04/11 05:48:28;;;;;;;3.00;2.73;;;13.60;90.50;;;;;;5453729;26;20791;-65
2024/04/11 05:50:55;;;;;;;4.17;3.77;;;13.60;90.80;;;;;;5453414;26;20453;-66
2024/04/11 05:53:21;;;;;;;3.90;3.60;;;13.60;90.40;;;;;;5452946;26;20488;-65
2024/04/11 05:55:47;;;;;;;4.20;3.83;;;13.60;89.30;;;;;;5453917;26;20450;-65
2024/04/11 05:58:13;;;;;;;4.33;3.73;;;13.70;89.40;;;;;;5452474;26;20562;-65
2024/04/11 06:00:39;;;;;;;3.40;2.80;;;13.70;90.20;;;;;;5453293;26;20565;-65
2024/04/11 06:03:08;;;;;;;6.57;4.90;;;13.80;90.10;;;;;;5453124;26;20696;-65
2024/04/11 06:05:40;;;;;;;3.30;2.70;;;13.80;90.10;;;;;;5453738;26;20429;-65
2024/04/11 06:08:08;;;;;;;5.40;2.47;;;13.80;88.20;;;;;;5420481;26;20768;-65
2024/04/11 06:10:34;;;;;;;3.67;2.80;;;13.80;88.40;;;;;;5451895;26;20528;-65
2024/04/11 06:13:01;;;;;;;4.00;3.70;;;13.80;90.20;;;;;;5453613;26;20494;-65
2024/04/11 06:15:28;;;;;;;4.17;3.17;;;13.80;88.90;;;;;;5453578;26;20483;-66
2024/04/11 06:17:53;;;;;;;3.73;3.43;;;13.70;88.80;;;;;;5451904;26;20539;-64
2024/04/11 06:20:24;;;;;;;5.53;5.00;;;13.80;89.70;;;;;;5416604;26;20596;-66
2024/04/11 06:22:52;;;;;;;4.90;4.60;;;13.80;88.60;;;;;;5417367;26;20775;-66
2024/04/11 06:25:19;;;;;;;3.73;3.43;;;13.90;89.90;;;;;;5416616;26;20499;-65
2024/04/11 06:27:45;;;;;;;2.77;2.50;;;13.90;89.80;;;;;;5417478;26;20507;-65
2024/04/11 06:30:14;;;;;;;3.20;3.00;;;13.90;90.00;;;;;;5415850;26;20482;-65
2024/04/11 06:32:43;;;;;;;4.70;4.50;;;13.90;88.70;;;;;;5415974;26;20244;-65
2024/04/11 06:35:11;;;;;;;4.33;2.60;;;13.90;89.50;;;;;;5411685;26;20883;-64
2024/04/11 06:37:36;;;;;;;2.70;2.60;;;13.90;90.50;;;;;;5414662;26;20439;-65
2024/04/11 06:40:11;;;;;;;3.33;2.90;;;14.00;89.90;;;;;;5416184;26;20502;-67
2024/04/11 06:42:46;;;;;;;5.83;4.20;;;14.10;91.50;;;;;;5416611;26;20234;-60
2024/04/11 06:45:16;;;;;;;3.60;3.23;;;14.60;99.40;;;;;;5413698;26;20566;-61
2024/04/11 06:47:45;;;;;;;5.77;5.47;;;15.10;99.90;;;;;;5382067;26;20437;-60
2024/04/11 06:50:11;;;;;;;5.80;4.50;;;15.50;99.90;;;;;;5407949;26;20445;-60
2024/04/11 06:52:37;;;;;;;5.90;5.00;;;15.80;98.30;;;;;;5415687;26;20453;-63
2024/04/11 06:55:05;;;;;;;6.77;3.90;;;16.20;97.10;;;;;;5416972;26;20219;-60
2024/04/11 06:57:37;;;;;;;5.80;5.30;;;16.50;97.20;;;;;;5416916;26;20835;-60
2024/04/11 07:00:14;;;;;;;4.23;2.87;;;16.80;96.80;;;;;;5416400;26;20453;-60
2024/04/11 07:02:44;;;;;;;5.50;4.90;;;16.90;95.00;;;;;;5412622;26;20575;-59
2024/04/11 07:05:13;;;;;;;4.30;4.00;;;17.00;87.30;;;;;;5414365;26;20453;-60
2024/04/11 07:07:54;;;;;;;4.27;3.90;;;17.00;84.40;;;;;;5416424;26;20437;-60
2024/04/11 07:10:32;;;;;;;3.10;2.40;;;17.00;83.30;;;;;;5384135;26;20833;-60
2024/04/11 07:12:59;;;;;;;3.07;2.77;;;17.00;83.10;;;;;;5416725;26;20508;-60
2024/04/11 07:15:34;;;;;;;4.23;2.27;;;17.00;81.60;;;;;;5387023;26;20720;-59
2024/04/11 07:18:01;;;;;;;3.60;3.30;;;16.90;82.80;;;;;;5415502;26;20528;-59
2024/04/11 07:20:31;;;;;;;3.57;3.37;;;16.90;82.90;;;;;;5413074;26;20448;-59
2024/04/11 07:22:58;;;;;;;4.13;3.93;;;16.80;81.70;;;;;;5383793;26;20457;-59
2024/04/11 07:25:26;;;;;;;4.20;4.00;;;16.60;81.20;;;;;;5415916;26;20445;-59
2024/04/11 07:27:55;;;;;;;3.00;2.80;;;16.60;84.50;;;;;;5412395;26;20453;-59
2024/04/11 07:30:24;;;;;;;7.30;2.90;;;16.60;88.30;;;;;;5413881;26;20846;-60
2024/04/11 07:32:52;;;;;;;4.87;4.67;;;16.60;86.20;;;;;;5414970;26;20441;-59
2024/04/11 07:35:17;;;;;;;3.93;3.63;;;16.60;85.10;;;;;;5398626;26;20453;-60
2024/04/11 07:37:43;;;;;;;4.33;2.73;;;16.60;82.90;;;;;;5415428;26;20578;-59
2024/04/11 07:40:28;;;;;;;6.10;2.90;;;16.60;85.50;;;;;;5382066;26;20281;-60
2024/04/11 07:42:55;;;;;;;3.20;2.90;;;16.70;85.50;;;;;;5416004;26;20955;-58
2024/04/11 07:45:25;;;;;;;3.53;2.90;;;16.70;84.00;;;;;;5415323;26;20494;-59
2024/04/11 07:47:58;;;;;;;2.70;2.50;;;16.60;81.70;;;;;;5416176;26;20436;-59
2024/04/11 07:50:26;;;;;;;2.90;2.70;;;16.50;81.60;;;;;;5415555;26;20433;-59
2024/04/11 07:52:52;;;;;;;3.13;2.93;;;16.30;81.00;;;;;;5416223;26;20440;-59
2024/04/11 07:55:20;;;;;;;3.27;2.87;;;16.10;81.60;;;;;;5384182;26;20480;-59
2024/04/11 07:57:46;;;;;;;3.87;2.93;;;15.80;82.20;;;;;;5415992;26;20437;-59
2024/04/11 08:00:20;;;;;;;5.37;3.30;;;15.70;83.70;;;;;;5416674;26;20994;-59
2024/04/11 08:02:49;;;;;;;3.73;3.60;;;15.60;84.90;;;;;;5357479;26;20440;-58
2024/04/11 08:05:15;;;;;;;6.93;3.70;;;15.40;84.40;;;;;;5383629;26;20799;-58
2024/04/11 08:07:42;;;;;;;2.70;2.50;;;15.30;85.60;;;;;;5415512;26;20448;-59
2024/04/11 08:10:13;;;;;;;4.83;3.50;;;15.10;85.90;;;;;;5415236;26;20493;-58
2024/04/11 08:12:40;;;;;;;5.20;3.30;;;15.00;86.40;;;;;;5415524;26;20489;-57
2024/04/11 08:15:07;;;;;;;6.30;3.60;;;14.90;87.80;;;;;;5415332;26;20767;-58
2024/04/11 08:17:37;;;;;;;2.60;2.50;;;14.80;88.30;;;;;;5413304;26;20501;-58
2024/04/11 08:20:12;;;;;;;3.10;2.90;;;14.80;89.80;;;;;;5414687;26;20277;-60
2024/04/11 08:22:41;;;;;;;4.83;2.90;;;14.70;90.00;;;;;;5412382;26;20540;-58
2024/04/11 08:25:14;;;;;;;4.57;2.70;;;14.60;90.60;;;;;;5414139;26;21005;-58
2024/04/11 08:27:42;;;;;;;3.57;3.27;;;14.60;92.20;;;;;;5414206;26;20440;-58
2024/04/11 08:30:09;;;;;;;2.77;2.50;;;14.60;91.80;;;;;;5414273;26;20466;-60
2024/04/11 08:32:35;;;;;;;3.53;2.50;;;14.60;91.70;;;;;;5414702;26;21144;-60
2024/04/11 08:35:02;;;;;;;3.53;2.60;;;14.60;91.50;;;;;;5415040;26;20503;-60
2024/04/11 08:37:28;;;;;;;4.70;2.40;;;14.70;92.30;;;;;;5413225;26;20448;-60
2024/04/11 08:39:55;;;;;;;5.07;4.73;;;14.70;91.70;;;;;;5415017;26;20817;-60
2024/04/11 08:42:21;;;;;;;3.20;2.80;;;14.50;92.00;;;;;;5414566;26;20327;-59
2024/04/11 08:44:48;;;;;;;3.90;3.60;;;14.50;92.60;;;;;;5418835;26;20431;-60
2024/04/11 08:47:15;;;;;;;3.70;2.67;;;14.50;92.90;;;;;;5418018;26;20518;-59
2024/04/11 08:49:40;;;;;;;5.33;3.40;;;14.50;93.60;;;;;;5418996;26;20447;-59
2024/04/11 08:52:07;;;;;;;5.03;4.50;;;14.50;94.10;;;;;;5418483;26;20565;-59
2024/04/11 08:54:38;;;;;;;4.50;3.73;;;14.60;94.50;;;;;;5418035;26;20276;-59
2024/04/11 08:57:06;;;;;;;3.50;2.20;;;14.60;94.60;;;;;;5418453;26;20560;-60
2024/04/11 08:59:33;;;;;;;4.10;2.23;;;14.60;94.50;;;;;;5417231;26;20892;-60
2024/04/11 09:01:58;;;;;;;5.50;3.60;;;14.70;95.20;;;;;;5387029;26;20838;-58
2024/04/11 09:04:24;;;;;;;4.83;3.10;;;14.80;94.80;;;;;;5417659;26;20501;-58
2024/04/11 09:06:53;;;;;;;4.40;3.03;;;14.70;94.00;;;;;;5417739;26;20273;-59
2024/04/11 09:09:19;;;;;;;3.40;2.50;;;14.70;94.30;;;;;;5412962;26;20727;-58
2024/04/11 09:11:46;;;;;;;2.87;2.67;;;14.80;94.40;;;;;;5418599;26;20510;-59
2024/04/11 09:14:14;;;;;;;2.83;2.33;;;14.90;94.00;;;;;;5418600;26;20811;-59
2024/04/11 09:16:42;;;;;;;2.73;2.53;;;14.90;93.90;;;;;;5418406;26;20425;-59
2024/04/11 09:19:11;;;;;;;6.10;2.90;;;14.90;93.50;;;;;;5438097;26;20527;-58
2024/04/11 09:21:44;;;;;;;3.47;2.67;;;15.00;93.30;;;;;;5454074;26;20498;-58
2024/04/11 09:24:16;;;;;;;2.90;2.70;;;15.00;93.20;;;;;;5453094;26;20472;-59
2024/04/11 09:26:49;;;;;;;3.23;3.03;;;14.90;94.00;;;;;;5418392;26;20441;-59
2024/04/11 09:29:17;;;;;;;2.97;2.70;;;14.90;93.40;;;;;;5417731;26;20437;-58
2024/04/11 09:31:43;;;;;;;5.10;2.90;;;15.00;93.10;;;;;;5418346;26;20441;-58
2024/04/11 09:34:11;;;;;;;3.87;3.57;;;15.00;93.00;;;;;;5418355;26;20502;-59
2024/04/11 09:36:50;;;;;;;4.17;2.90;;;15.00;92.60;;;;;;5417349;26;20497;-59
2024/04/11 09:39:45;;;;;;;3.40;2.73;;;15.10;93.50;;;;;;5417297;26;20487;-59
2024/04/11 09:42:18;;;;;;;3.80;3.10;;;15.20;92.90;;;;;;5444219;26;20793;-59
2024/04/11 09:44:48;;;;;;;4.17;3.30;;;15.20;92.70;;;;;;5453282;26;20455;-59
2024/04/11 09:47:19;;;;;;;6.07;3.00;;;15.30;93.00;;;;;;5453634;26;20488;-60
2024/04/11 09:50:04;;;;;;;4.87;3.17;;;15.40;93.00;;;;;;5453817;26;20505;-59
2024/04/11 09:52:34;;;;;;;4.67;2.63;;;15.50;93.00;;;;;;5453265;26;20432;-59
2024/04/11 09:55:07;;;;;;;4.63;2.80;;;15.60;93.10;;;;;;5453438;26;21005;-59
2024/04/11 09:57:36;;;;;;;4.40;2.90;;;15.60;93.20;;;;;;5453134;26;20503;-59
2024/04/11 10:00:22;;;;;;;2.93;2.63;;;15.40;92.60;;;;;;5422003;26;20444;-58
2024/04/11 10:02:54;;;;;;;2.70;2.50;;;15.50;92.90;;;;;;5453992;26;20491;-59
2024/04/11 10:05:23;;;;;;;3.93;3.30;;;15.60;92.60;;;;;;5452984;26;20428;-59
2024/04/11 10:07:57;;;;;;;4.03;2.40;;;15.70;93.20;;;;;;5453801;26;20491;-59
2024/04/11 10:10:27;;;;;;;3.00;2.77;;;15.90;93.00;;;;;;5452002;26;20439;-59
2024/04/11 10:13:05;;;;;;;3.47;2.57;;;16.00;92.00;;;;;;5452671;26;20432;-60
2024/04/11 10:15:34;;;;;;;5.33;5.00;;;16.10;92.50;;;;;;5452990;26;20966;-59
2024/04/11 10:18:03;;;;;;;2.77;2.57;;;16.20;91.60;;;;;;5453407;26;20807;-59
2024/04/11 10:21:01;;;;;;;2.70;2.50;;;16.30;91.60;;;;;;5453007;26;20455;-59
2024/04/11 10:23:32;;;;;;;4.17;3.97;;;16.40;92.60;;;;;;5452840;26;20420;-59
2024/04/11 10:26:02;;;;;;;3.97;3.60;;;16.40;92.40;;;;;;5453380;26;20423;-59
2024/04/11 10:28:38;;;;;;;2.63;2.40;;;16.40;91.50;;;;;;5452730;26;20472;-59
2024/04/11 10:31:22;;;;;;;4.20;3.70;;;16.50;92.60;;;;;;5453601;26;20430;-59
2024/04/11 10:33:58;;;;;;;2.50;2.30;;;16.60;92.80;;;;;;5453430;26;20482;-59
2024/04/11 10:36:32;;;;;;;2.30;2.10;;;16.60;92.60;;;;;;5452539;26;20491;-59
2024/04/11 10:38:58;;;;;;;3.60;3.30;;;16.70;92.50;;;;;;5453141;26;20428;-59
2024/04/11 10:41:26;;;;;;;2.20;2.10;;;16.70;93.40;;;;;;5449410;26;20562;-59
2024/04/11 10:43:52;;;;;;;3.10;2.53;;;16.70;92.70;;;;;;5453234;26;20444;-59
2024/04/11 10:46:20;;;;;;;4.10;3.70;;;16.80;92.90;;;;;;5452128;26;20424;-60
2024/04/11 10:48:52;;;;;;;4.00;3.80;;;16.70;92.70;;;;;;5444647;26;20455;-59
2024/04/11 10:51:20;;;;;;;3.00;2.50;;;16.70;92.80;;;;;;5446769;26;20508;-59
2024/04/11 10:54:11;;;;;;;2.97;2.87;;;16.70;92.80;;;;;;5444341;26;20456;-59
2024/04/11 10:56:41;;;;;;;3.30;3.00;;;16.60;92.60;;;;;;5446925;26;20990;-59
2024/04/11 10:59:22;;;;;;;4.40;3.57;;;16.60;92.50;;;;;;5453095;26;20424;-59
2024/04/11 11:02:02;;;;;;;3.60;3.50;;;16.60;93.00;;;;;;5453040;26;20553;-59
2024/04/11 11:04:31;;;;;;;2.67;2.50;;;16.50;92.60;;;;;;5451184;26;20516;-59
2024/04/11 11:06:59;;;;;;;5.83;2.30;;;16.50;92.60;;;;;;5451307;26;20424;-59
2024/04/11 11:09:27;;;;;;;4.80;4.40;;;16.60;93.00;;;;;;5451962;26;20773;-59
2024/04/11 11:11:59;;;;;;;4.77;3.83;;;16.60;93.00;;;;;;5420937;26;20543;-58
2024/04/11 11:14:28;;;;;;;4.10;3.00;;;16.60;92.90;;;;;;5451955;26;20432;-59
2024/04/11 11:16:57;;;;;;;3.37;3.17;;;16.60;93.40;;;;;;5446615;26;20798;-59
2024/04/11 11:19:24;;;;;;;2.80;2.60;;;16.60;93.50;;;;;;5451705;26;20513;-59
2024/04/11 11:21:50;;;;;;;3.37;2.60;;;16.60;93.60;;;;;;5452896;26;20948;-59
2024/04/11 11:24:24;;;;;;;5.93;5.00;;;16.60;94.30;;;;;;5452769;26;20480;-59
2024/04/11 11:26:57;;;;;;;2.30;2.20;;;16.60;94.60;;;;;;5452807;26;20888;-59
2024/04/11 11:29:28;;;;;;;4.07;3.50;;;16.60;94.60;;;;;;5452164;26;20428;-59
2024/04/11 11:32:04;;;;;;;3.40;2.37;;;16.70;94.80;;;;;;5452773;26;20431;-59
2024/04/11 11:34:42;;;;;;;3.83;3.63;;;16.70;94.50;;;;;;5387035;26;20451;-59
2024/04/11 11:37:12;;;;;;;3.80;3.60;;;16.70;94.70;;;;;;5452236;26;20431;-59
2024/04/11 11:39:49;;;;;;;3.07;2.37;;;16.70;94.60;;;;;;5451790;26;20507;-59
2024/04/11 11:42:31;;;;;;;5.57;3.20;;;16.80;95.20;;;;;;5452478;26;20422;-59
2024/04/11 11:47:34;;;;;;;2.80;2.60;;;16.80;94.70;;;;;;5451079;26;20423;-59
2024/04/11 11:50:07;;;;;;;2.93;2.67;;;16.70;95.50;;;;;;5452463;26;20439;-59
2024/04/11 11:52:37;;;;;;;3.13;3.03;;;16.70;96.70;;;;;;5451478;26;20431;-59
2024/04/11 11:55:04;;;;;;;4.67;2.40;;;16.70;95.80;;;;;;5452179;26;20439;-59
2024/04/11 11:57:39;;;;;;;4.00;3.60;;;16.60;95.60;;;;;;5451181;26;20440;-59
2024/04/11 12:00:19;;;;;;;2.20;1.90;;;16.70;95.60;;;;;;5451982;26;20431;-59
2024/04/11 12:02:50;;;;;;;4.60;4.27;;;16.70;96.90;;;;;;5451095;26;20829;-59
2024/04/11 12:05:23;;;;;;;4.13;3.83;;;16.70;95.70;;;;;;5448661;26;20836;-59
2024/04/11 12:07:59;;;;;;;3.87;3.67;;;16.60;95.90;;;;;;5451695;26;20579;-59
2024/04/11 12:13:21;;;;;;;3.07;2.80;;;16.60;96.60;;;;;;5446632;26;20459;-59
2024/04/11 12:15:51;;;;;;;5.83;2.60;;;16.60;97.30;;;;;;5445598;26;20503;-59
2024/04/11 12:18:22;;;;;;;3.43;3.00;;;16.60;97.10;;;;;;5454125;26;20475;-59
2024/04/11 12:20:51;;;;;;;2.37;2.17;;;16.70;97.20;;;;;;5454689;26;20443;-59
2024/04/11 12:23:21;;;;;;;3.60;3.30;;;16.70;97.00;;;;;;5455142;26;20477;-59
2024/04/11 12:25:47;;;;;;;2.80;2.60;;;16.70;97.10;;;;;;5454542;26;20475;-59
2024/04/11 12:28:13;;;;;;;4.03;2.90;;;16.70;97.00;;;;;;5455191;26;20863;-59
2024/04/11 12:30:40;;;;;;;4.57;3.20;;;16.70;97.00;;;;;;5422743;26;20447;-59
2024/04/11 12:33:08;;;;;;;3.73;2.47;;;16.70;97.70;;;;;;5393349;26;20451;-59
2024/04/11 12:35:45;;;;;;;3.03;2.70;;;16.70;96.90;;;;;;5453264;26;20439;-59
2024/04/11 12:38:15;;;;;;;2.93;2.70;;;16.70;97.30;;;;;;5448725;26;20443;-59
2024/04/11 12:40:48;;;;;;;2.93;2.10;;;16.70;97.30;;;;;;5453444;26;20423;-59
2024/04/11 12:43:20;;;;;;;3.60;3.30;;;16.70;97.80;;;;;;5454426;26;20435;-59
2024/04/11 12:45:52;;;;;;;3.07;2.60;;;16.60;98.50;;;;;;5421567;26;21123;-59
2024/04/11 12:48:24;;;;;;;2.50;2.40;;;16.70;98.60;;;;;;5454151;26;20517;-59
2024/04/11 12:50:54;;;;;;;4.13;2.70;;;16.80;98.60;;;;;;5453325;26;20436;-59
2024/04/11 12:53:25;;;;;;;4.17;3.80;;;17.00;99.40;;;;;;5454338;26;20491;-59
2024/04/11 12:55:57;;;;;;;2.90;2.60;;;17.00;98.20;;;;;;5453560;26;20470;-59
2024/04/11 12:58:37;;;;;;;3.00;2.70;;;17.20;97.90;;;;;;5422302;26;20486;-59
2024/04/11 13:01:05;;;;;;;3.97;3.67;;;17.20;97.50;;;;;;5454681;26;20435;-59
2024/04/11 13:06:29;;;;;;;4.33;3.90;;;17.40;99.00;;;;;;5451255;26;20476;-59
2024/04/11 13:09:48;;;;;;;3.80;3.60;;;17.50;99.90;;;;;;5452851;26;20451;-59